sensor_id;sensor_type;location;lat;lon;timestamp;pressure;altitude;pressure_sealevel;temperature;humidity
76052;BME280;64751;48.708;9.710;2023-05-07T14:32:39;97535.25;;;19.47;59.92
76052;BME280;64751;48.708;9.710;2023-05-07T14:35:08;97530.19;;;19.34;61.17
76052;BME280;64751;48.708;9.710;2023-05-07T14:37:36;97548.47;;;19.20;61.71
76052;BME280;64751;48.708;9.710;2023-05-07T14:40:04;97551.63;;;19.01;62.83
76052;BME280;64751;48.708;9.710;2023-05-07T14:42:32;97557.41;;;18.91;62.95
76052;BME280;64751;48.708;9.710;2023-05-07T14:45:00;97567.88;;;18.84;63.17
76052;BME280;64751;48.708;9.710;2023-05-07T14:47:27;97579.44;;;18.76;63.50
76052;BME280;64751;48.708;9.710;2023-05-07T14:49:56;97575.34;;;18.58;63.86
76052;BME280;64751;48.708;9.710;2023-05-07T14:52:25;97575.19;;;18.54;64.30
76052;BME280;64751;48.708;9.710;2023-05-07T14:54:53;97576.84;;;18.38;63.80
76052;BME280;64751;48.708;9.710;2023-05-07T14:57:20;97575.53;;;18.24;63.83
76052;BME280;64751;48.708;9.710;2023-05-07T14:59:48;97576.31;;;18.24;64.35
76052;BME280;64751;48.708;9.710;2023-05-07T15:02:16;97583.56;;;18.24;64.96
76052;BME280;64751;48.708;9.710;2023-05-07T15:04:44;97577.47;;;18.15;64.35
76052;BME280;64751;48.708;9.710;2023-05-07T15:07:14;97576.88;;;18.09;64.50
76052;BME280;64751;48.708;9.710;2023-05-07T15:09:42;97590.75;;;18.02;64.95
76052;BME280;64751;48.708;9.710;2023-05-07T15:12:10;97585.16;;;17.95;65.14
76052;BME280;64751;48.708;9.710;2023-05-07T15:14:38;97593.63;;;17.89;65.75
76052;BME280;64751;48.708;9.710;2023-05-07T15:17:06;97592.56;;;17.90;65.78
76052;BME280;64751;48.708;9.710;2023-05-07T15:19:34;97594.13;;;17.91;65.90
76052;BME280;64751;48.708;9.710;2023-05-07T15:22:01;97603.69;;;17.92;67.10
76052;BME280;64751;48.708;9.710;2023-05-07T15:24:31;97600.28;;;17.83;67.51
76052;BME280;64751;48.708;9.710;2023-05-07T15:26:58;97605.63;;;17.83;67.94
76052;BME280;64751;48.708;9.710;2023-05-07T15:29:27;97612.72;;;17.79;68.70
76052;BME280;64751;48.708;9.710;2023-05-07T15:31:56;97605.66;;;17.74;69.33
76052;BME280;64751;48.708;9.710;2023-05-07T15:34:24;97614.63;;;17.70;68.93
76052;BME280;64751;48.708;9.710;2023-05-07T15:36:51;97621.03;;;18.15;94.69
76052;BME280;64751;48.708;9.710;2023-05-07T15:39:19;97622.97;;;18.85;100.00
76052;BME280;64751;48.708;9.710;2023-05-07T15:41:48;97607.88;;;19.34;100.00
76052;BME280;64751;48.708;9.710;2023-05-07T15:44:15;97613.06;;;19.51;100.00
76052;BME280;64751;48.708;9.710;2023-05-07T15:46:43;97612.97;;;19.60;100.00
76052;BME280;64751;48.708;9.710;2023-05-07T15:49:10;97612.88;;;19.68;100.00
76052;BME280;64751;48.708;9.710;2023-05-07T15:51:38;97607.63;;;19.72;100.00
76052;BME280;64751;48.708;9.710;2023-05-07T15:54:06;97612.75;;;19.65;100.00
76052;BME280;64751;48.708;9.710;2023-05-07T15:56:33;97610.66;;;19.70;100.00
76052;BME280;64751;48.708;9.710;2023-05-07T15:59:02;97621.81;;;19.72;100.00
76052;BME280;64751;48.708;9.710;2023-05-07T16:01:30;97623.38;;;19.61;100.00
76052;BME280;64751;48.708;9.710;2023-05-07T16:03:57;97619.50;;;19.38;100.00
76052;BME280;64751;48.708;9.710;2023-05-07T16:06:25;97627.09;;;19.15;100.00
76052;BME280;64751;48.708;9.710;2023-05-07T16:08:53;97622.72;;;19.11;100.00
76052;BME280;64751;48.708;9.710;2023-05-07T16:11:20;97631.28;;;19.04;100.00
76052;BME280;64751;48.708;9.710;2023-05-07T16:13:48;97622.75;;;18.90;100.00
76052;BME280;64751;48.708;9.710;2023-05-07T16:16:16;97623.41;;;18.87;100.00
76052;BME280;64751;48.708;9.710;2023-05-07T16:18:44;97621.50;;;18.88;100.00
76052;BME280;64751;48.708;9.710;2023-05-07T16:21:12;97619.69;;;18.79;100.00
76052;BME280;64751;48.708;9.710;2023-05-07T16:23:39;97622.06;;;18.31;93.61
76052;BME280;64751;48.708;9.710;2023-05-07T16:26:07;97620.66;;;17.96;94.21
76052;BME280;64751;48.708;9.710;2023-05-07T16:28:34;97618.53;;;17.81;92.77
76052;BME280;64751;48.708;9.710;2023-05-07T16:31:02;97626.41;;;17.69;93.90
76052;BME280;64751;48.708;9.710;2023-05-07T16:33:31;97616.41;;;17.57;92.69
76052;BME280;64751;48.708;9.710;2023-05-07T16:35:58;97620.72;;;17.79;100.00
76052;BME280;64751;48.708;9.710;2023-05-07T16:38:26;97621.47;;;17.88;100.00
76052;BME280;64751;48.708;9.710;2023-05-07T16:40:58;97610.25;;;17.65;91.27
76052;BME280;64751;48.708;9.710;2023-05-07T16:43:25;97610.78;;;17.33;85.78
76052;BME280;64751;48.708;9.710;2023-05-07T16:45:53;97610.97;;;17.19;86.38
76052;BME280;64751;48.708;9.710;2023-05-07T16:48:21;97611.78;;;17.11;86.61
76052;BME280;64751;48.708;9.710;2023-05-07T16:50:50;97604.38;;;17.08;85.50
76052;BME280;64751;48.708;9.710;2023-05-07T16:53:18;97597.31;;;17.04;85.67
76052;BME280;64751;48.708;9.710;2023-05-07T16:55:46;97596.25;;;16.96;86.74
76052;BME280;64751;48.708;9.710;2023-05-07T16:58:13;97613.81;;;16.97;84.96
76052;BME280;64751;48.708;9.710;2023-05-07T17:00:41;97607.53;;;16.93;84.24
76052;BME280;64751;48.708;9.710;2023-05-07T17:03:09;97620.25;;;16.79;84.77
76052;BME280;64751;48.708;9.710;2023-05-07T17:05:36;97621.97;;;16.75;84.88
76052;BME280;64751;48.708;9.710;2023-05-07T17:08:06;97622.78;;;16.67;85.49
76052;BME280;64751;48.708;9.710;2023-05-07T17:10:33;97641.13;;;16.60;84.09
76052;BME280;64751;48.708;9.710;2023-05-07T17:13:01;97638.91;;;16.53;84.53
76052;BME280;64751;48.708;9.710;2023-05-07T17:15:28;97645.66;;;16.51;85.12
76052;BME280;64751;48.708;9.710;2023-05-07T17:17:56;97653.94;;;16.49;84.58
76052;BME280;64751;48.708;9.710;2023-05-07T17:20:23;97659.56;;;16.48;85.13
76052;BME280;64751;48.708;9.710;2023-05-07T17:22:52;97661.16;;;16.49;85.73
76052;BME280;64751;48.708;9.710;2023-05-07T17:25:21;97667.88;;;16.46;85.40
76052;BME280;64751;48.708;9.710;2023-05-07T17:27:49;97668.69;;;16.47;84.98
76052;BME280;64751;48.708;9.710;2023-05-07T17:30:16;97664.75;;;16.44;85.38
76052;BME280;64751;48.708;9.710;2023-05-07T17:32:44;97668.81;;;16.42;84.26
76052;BME280;64751;48.708;9.710;2023-05-07T17:35:11;97669.28;;;16.44;85.64
76052;BME280;64751;48.708;9.710;2023-05-07T17:37:39;97669.59;;;16.42;84.86
76052;BME280;64751;48.708;9.710;2023-05-07T17:40:12;97675.88;;;16.46;85.18
76052;BME280;64751;48.708;9.710;2023-05-07T17:42:41;97677.28;;;16.44;85.59
76052;BME280;64751;48.708;9.710;2023-05-07T17:45:10;97682.16;;;16.42;85.40
76052;BME280;64751;48.708;9.710;2023-05-07T17:47:37;97681.06;;;16.43;85.70
76052;BME280;64751;48.708;9.710;2023-05-07T17:50:06;97685.13;;;16.40;85.71
76052;BME280;64751;48.708;9.710;2023-05-07T17:52:36;97682.75;;;16.39;85.85
76052;BME280;64751;48.708;9.710;2023-05-07T17:55:04;97687.13;;;16.35;86.10
76052;BME280;64751;48.708;9.710;2023-05-07T17:57:32;97685.59;;;16.34;86.00
76052;BME280;64751;48.708;9.710;2023-05-07T18:00:02;97688.53;;;16.32;86.20
76052;BME280;64751;48.708;9.710;2023-05-07T18:02:33;97687.91;;;16.27;86.31
76052;BME280;64751;48.708;9.710;2023-05-07T18:05:00;97701.41;;;16.30;86.11
76052;BME280;64751;48.708;9.710;2023-05-07T18:07:28;97701.72;;;16.29;86.43
76052;BME280;64751;48.708;9.710;2023-05-07T18:09:56;97700.59;;;16.30;85.65
76052;BME280;64751;48.708;9.710;2023-05-07T18:12:23;97713.78;;;16.35;84.83
76052;BME280;64751;48.708;9.710;2023-05-07T18:14:51;97712.88;;;16.39;84.74
76052;BME280;64751;48.708;9.710;2023-05-07T18:17:20;97714.63;;;16.44;84.15
76052;BME280;64751;48.708;9.710;2023-05-07T18:19:49;97705.53;;;16.45;84.31
76052;BME280;64751;48.708;9.710;2023-05-07T18:22:17;97707.56;;;16.48;83.73
76052;BME280;64751;48.708;9.710;2023-05-07T18:24:44;97711.81;;;16.49;83.97
76052;BME280;64751;48.708;9.710;2023-05-07T18:27:12;97716.03;;;16.50;83.60
76052;BME280;64751;48.708;9.710;2023-05-07T18:29:39;97715.88;;;16.46;83.54
76052;BME280;64751;48.708;9.710;2023-05-07T18:32:07;97713.81;;;16.43;83.51
76052;BME280;64751;48.708;9.710;2023-05-07T18:34:36;97728.88;;;16.48;83.33
76052;BME280;64751;48.708;9.710;2023-05-07T18:37:04;97732.66;;;16.47;83.92
76052;BME280;64751;48.708;9.710;2023-05-07T18:39:31;97738.28;;;16.45;83.74
76052;BME280;64751;48.708;9.710;2023-05-07T18:41:59;97741.28;;;16.44;83.61
76052;BME280;64751;48.708;9.710;2023-05-07T18:44:26;97738.13;;;16.42;83.54
76052;BME280;64751;48.708;9.710;2023-05-07T18:46:56;97732.94;;;16.37;83.43
76052;BME280;64751;48.708;9.710;2023-05-07T18:49:24;97735.59;;;16.37;83.35
76052;BME280;64751;48.708;9.710;2023-05-07T18:51:53;97725.25;;;16.35;83.33
76052;BME280;64751;48.708;9.710;2023-05-07T18:54:21;97732.47;;;16.35;83.23
76052;BME280;64751;48.708;9.710;2023-05-07T18:56:49;97725.09;;;16.32;83.20
76052;BME280;64751;48.708;9.710;2023-05-07T18:59:17;97735.56;;;16.28;83.67
76052;BME280;64751;48.708;9.710;2023-05-07T19:01:45;97725.84;;;16.24;83.43
76052;BME280;64751;48.708;9.710;2023-05-07T19:04:12;97724.28;;;16.23;83.58
76052;BME280;64751;48.708;9.710;2023-05-07T19:06:41;97727.22;;;16.21;83.16
76052;BME280;64751;48.708;9.710;2023-05-07T19:09:10;97732.41;;;16.18;83.19
76052;BME280;64751;48.708;9.710;2023-05-07T19:11:38;97732.72;;;16.16;83.16
76052;BME280;64751;48.708;9.710;2023-05-07T19:14:05;97741.78;;;16.15;83.13
76052;BME280;64751;48.708;9.710;2023-05-07T19:16:33;97749.78;;;16.15;83.01
76052;BME280;64751;48.708;9.710;2023-05-07T19:19:01;97756.38;;;16.18;82.85
76052;BME280;64751;48.708;9.710;2023-05-07T19:21:28;97764.69;;;16.16;82.63
76052;BME280;64751;48.708;9.710;2023-05-07T19:23:57;97762.44;;;16.10;82.91
76052;BME280;64751;48.708;9.710;2023-05-07T19:26:26;97763.22;;;16.10;82.51
76052;BME280;64751;48.708;9.710;2023-05-07T19:28:53;97766.03;;;16.05;82.53
76052;BME280;64751;48.708;9.710;2023-05-07T19:31:23;97773.25;;;16.05;82.36
76052;BME280;64751;48.708;9.710;2023-05-07T19:33:52;97775.72;;;16.01;82.26
76052;BME280;64751;48.708;9.710;2023-05-07T19:36:20;97783.72;;;16.01;82.18
76052;BME280;64751;48.708;9.710;2023-05-07T19:38:48;97795.28;;;15.96;82.53
76052;BME280;64751;48.708;9.710;2023-05-07T19:41:18;97797.78;;;15.93;82.29
76052;BME280;64751;48.708;9.710;2023-05-07T19:43:47;97812.97;;;15.92;82.05
76052;BME280;64751;48.708;9.710;2023-05-07T19:46:15;97809.47;;;15.83;82.25
76052;BME280;64751;48.708;9.710;2023-05-07T19:48:43;97813.22;;;15.82;82.52
76052;BME280;64751;48.708;9.710;2023-05-07T19:51:10;97812.44;;;15.82;82.41
76052;BME280;64751;48.708;9.710;2023-05-07T19:53:38;97808.97;;;15.81;82.19
76052;BME280;64751;48.708;9.710;2023-05-07T19:56:07;97820.72;;;15.80;82.40
76052;BME280;64751;48.708;9.710;2023-05-07T19:58:36;97817.41;;;15.75;82.40
76052;BME280;64751;48.708;9.710;2023-05-07T20:01:06;97823.50;;;15.75;82.22
76052;BME280;64751;48.708;9.710;2023-05-07T20:03:34;97823.03;;;15.73;82.22
76052;BME280;64751;48.708;9.710;2023-05-07T20:06:02;97827.25;;;15.74;82.17
76052;BME280;64751;48.708;9.710;2023-05-07T20:08:30;97834.44;;;15.74;82.64
76052;BME280;64751;48.708;9.710;2023-05-07T20:10:58;97836.34;;;15.73;82.31
76052;BME280;64751;48.708;9.710;2023-05-07T20:13:26;97834.75;;;15.72;82.68
76052;BME280;64751;48.708;9.710;2023-05-07T20:15:56;97847.47;;;15.75;82.57
76052;BME280;64751;48.708;9.710;2023-05-07T20:18:26;97836.16;;;15.70;82.70
76052;BME280;64751;48.708;9.710;2023-05-07T20:20:54;97835.34;;;15.69;82.30
76052;BME280;64751;48.708;9.710;2023-05-07T20:23:22;97837.34;;;15.64;81.97
76052;BME280;64751;48.708;9.710;2023-05-07T20:25:50;97843.97;;;15.66;82.18
76052;BME280;64751;48.708;9.710;2023-05-07T20:28:18;97848.19;;;15.67;82.75
76052;BME280;64751;48.708;9.710;2023-05-07T20:30:45;97851.75;;;15.63;82.74
76052;BME280;64751;48.708;9.710;2023-05-07T20:33:13;97849.41;;;15.61;82.64
76052;BME280;64751;48.708;9.710;2023-05-07T20:35:42;97840.22;;;15.54;82.85
76052;BME280;64751;48.708;9.710;2023-05-07T20:38:10;97848.53;;;15.52;83.00
76052;BME280;64751;48.708;9.710;2023-05-07T20:40:39;97844.28;;;15.51;82.98
76052;BME280;64751;48.708;9.710;2023-05-07T20:43:07;97849.59;;;15.51;82.52
76052;BME280;64751;48.708;9.710;2023-05-07T20:45:35;97856.34;;;15.49;82.34
76052;BME280;64751;48.708;9.710;2023-05-07T20:48:03;97846.47;;;15.49;82.84
76052;BME280;64751;48.708;9.710;2023-05-07T20:50:30;97840.06;;;15.50;82.81
76052;BME280;64751;48.708;9.710;2023-05-07T20:53:00;97844.41;;;15.46;82.42
76052;BME280;64751;48.708;9.710;2023-05-07T20:55:28;97849.59;;;15.51;82.92
76052;BME280;64751;48.708;9.710;2023-05-07T20:57:55;97857.91;;;15.50;82.53
76052;BME280;64751;48.708;9.710;2023-05-07T21:00:23;97861.34;;;15.50;82.84
76052;BME280;64751;48.708;9.710;2023-05-07T21:02:51;97851.03;;;15.49;82.29
76052;BME280;64751;48.708;9.710;2023-05-07T21:05:19;97848.94;;;15.46;82.60
76052;BME280;64751;48.708;9.710;2023-05-07T21:07:46;97859.09;;;15.44;82.45
76052;BME280;64751;48.708;9.710;2023-05-07T21:10:15;97863.59;;;15.43;82.59
76052;BME280;64751;48.708;9.710;2023-05-07T21:12:43;97865.47;;;15.43;82.54
76052;BME280;64751;48.708;9.710;2023-05-07T21:15:10;97867.66;;;15.41;82.47
76052;BME280;64751;48.708;9.710;2023-05-07T21:17:38;97871.09;;;15.41;82.80
76052;BME280;64751;48.708;9.710;2023-05-07T21:20:07;97877.81;;;15.39;82.79
76052;BME280;64751;48.708;9.710;2023-05-07T21:22:35;97873.59;;;15.38;82.46
76052;BME280;64751;48.708;9.710;2023-05-07T21:25:03;97863.22;;;15.36;82.65
76052;BME280;64751;48.708;9.710;2023-05-07T21:27:32;97854.97;;;15.24;82.11
76052;BME280;64751;48.708;9.710;2023-05-07T21:30:00;97867.47;;;15.37;82.53
76052;BME280;64751;48.708;9.710;2023-05-07T21:32:31;97869.34;;;15.37;82.11
76052;BME280;64751;48.708;9.710;2023-05-07T21:34:59;97874.19;;;15.35;82.86
76052;BME280;64751;48.708;9.710;2023-05-07T21:37:26;97875.56;;;15.32;82.50
76052;BME280;64751;48.708;9.710;2023-05-07T21:39:54;97871.31;;;15.31;82.39
76052;BME280;64751;48.708;9.710;2023-05-07T21:42:22;97867.38;;;15.29;82.79
76052;BME280;64751;48.708;9.710;2023-05-07T21:44:51;97874.59;;;15.28;82.77
76052;BME280;64751;48.708;9.710;2023-05-07T21:47:18;97864.84;;;15.23;81.89
76052;BME280;64751;48.708;9.710;2023-05-07T21:49:46;97869.25;;;15.28;82.80
76052;BME280;64751;48.708;9.710;2023-05-07T21:52:15;97874.28;;;15.30;82.39
76052;BME280;64751;48.708;9.710;2023-05-07T21:54:42;97874.09;;;15.26;82.96
76052;BME280;64751;48.708;9.710;2023-05-07T21:57:10;97870.94;;;15.24;82.73
76052;BME280;64751;48.708;9.710;2023-05-07T21:59:38;97873.59;;;15.24;82.14
